createdAt,value
2019-02-24T00:00:16.679Z,16.40
2019-02-24T00:02:46.504Z,16.00
2019-02-24T00:05:16.341Z,17.47
2019-02-24T00:07:46.852Z,19.23
2019-02-24T00:10:16.647Z,17.50
2019-02-24T00:12:46.500Z,18.00
2019-02-24T00:15:16.309Z,18.17
2019-02-24T00:17:46.354Z,17.67
2019-02-24T00:20:15.851Z,17.37
2019-02-24T00:22:46.155Z,16.90
2019-02-24T00:25:15.795Z,18.17
2019-02-24T00:27:45.631Z,17.63
2019-02-24T00:30:15.692Z,17.00
2019-02-24T00:32:46.185Z,17.60
2019-02-24T00:35:15.797Z,16.77
2019-02-24T00:37:45.642Z,17.20
2019-02-24T00:40:15.752Z,17.47
2019-02-24T00:42:45.918Z,16.87
2019-02-24T00:45:15.631Z,17.33
2019-02-24T00:47:46.072Z,16.67
2019-02-24T00:50:15.960Z,16.50
2019-02-24T00:52:46.246Z,17.37
2019-02-24T00:55:15.946Z,16.27
2019-02-24T00:57:45.699Z,15.73
2019-02-24T01:00:16.162Z,15.97
2019-02-24T01:02:48.021Z,16.00
2019-02-24T01:05:17.621Z,15.63
2019-02-24T01:07:47.667Z,15.40
2019-02-24T01:10:17.555Z,16.00
2019-02-24T01:12:47.961Z,16.07
2019-02-24T01:15:17.622Z,14.90
2019-02-24T01:17:47.862Z,15.90
2019-02-24T01:20:17.711Z,16.67
2019-02-24T01:22:48.011Z,14.77
2019-02-24T01:25:17.793Z,15.67
2019-02-24T01:27:47.380Z,17.00
2019-02-24T01:30:17.411Z,15.60
2019-02-24T01:32:47.002Z,16.93
2019-02-24T01:35:16.649Z,15.87
2019-02-24T01:37:46.330Z,16.70
2019-02-24T01:40:15.931Z,16.70
2019-02-24T01:42:45.616Z,16.47
2019-02-24T01:45:15.341Z,16.67
2019-02-24T01:47:44.933Z,15.50
2019-02-24T01:50:14.770Z,15.77
2019-02-24T01:52:44.377Z,15.60
2019-02-24T01:55:14.142Z,16.37
2019-02-24T01:57:43.701Z,16.03
2019-02-24T02:00:13.472Z,17.37
2019-02-24T02:02:43.264Z,16.40
2019-02-24T02:05:13.047Z,15.80
2019-02-24T02:07:42.549Z,17.40
2019-02-24T02:10:12.573Z,17.63
2019-02-24T02:12:42.163Z,17.30
2019-02-24T02:15:13.458Z,17.03
2019-02-24T02:17:43.402Z,16.77
2019-02-24T02:20:13.301Z,16.50
2019-02-24T02:22:42.887Z,16.60
2019-02-24T02:25:12.555Z,16.43
2019-02-24T02:27:42.141Z,16.50
2019-02-24T02:30:12.626Z,16.93
2019-02-24T02:32:43.344Z,16.87
2019-02-24T02:35:12.836Z,16.53
2019-02-24T02:37:42.508Z,16.87
2019-02-24T02:40:12.204Z,15.83
2019-02-24T02:42:42.044Z,16.53
2019-02-24T02:45:11.713Z,17.07
2019-02-24T02:47:41.570Z,16.77
2019-02-24T02:50:11.583Z,16.33
2019-02-24T02:52:41.300Z,17.13
2019-02-24T02:55:10.944Z,17.67
2019-02-24T02:57:40.779Z,15.73
2019-02-24T03:00:35.118Z,15.93
2019-02-24T03:03:05.076Z,15.40
2019-02-24T03:05:34.937Z,16.00
2019-02-24T03:08:12.003Z,17.00
2019-02-24T03:10:41.644Z,16.73
2019-02-24T03:13:11.478Z,16.57
2019-02-24T03:15:41.151Z,17.27
2019-02-24T03:18:11.175Z,15.30
2019-02-24T03:20:40.885Z,16.33
2019-02-24T03:23:10.588Z,16.33
2019-02-24T03:25:40.389Z,16.53
2019-02-24T03:28:10.433Z,15.87
2019-02-24T03:30:40.291Z,16.70
2019-02-24T03:33:09.859Z,15.93
2019-02-24T03:35:39.715Z,16.50
2019-02-24T03:38:10.341Z,15.77
2019-02-24T03:40:40.109Z,16.33
2019-02-24T03:43:09.963Z,16.20
2019-02-24T03:45:39.512Z,16.17
2019-02-24T03:48:09.116Z,16.50
2019-02-24T03:50:38.685Z,16.00
2019-02-24T03:53:08.511Z,16.57
2019-02-24T03:55:38.264Z,16.40
2019-02-24T03:58:07.886Z,17.07
2019-02-24T04:00:37.540Z,16.47
2019-02-24T04:03:07.250Z,15.97
2019-02-24T04:05:36.801Z,16.27
2019-02-24T04:08:06.662Z,16.33
2019-02-24T04:10:36.500Z,15.40
2019-02-24T04:13:06.104Z,15.60
2019-02-24T04:15:35.785Z,15.87
2019-02-24T04:18:05.496Z,16.67
2019-02-24T04:20:35.225Z,16.37
2019-02-24T04:23:06.514Z,16.63
2019-02-24T04:25:36.167Z,17.07
2019-02-24T04:28:05.915Z,16.80
2019-02-24T04:30:35.599Z,15.80
2019-02-24T04:33:05.684Z,16.23
2019-02-24T04:35:35.576Z,16.20
2019-02-24T04:38:05.211Z,16.10
2019-02-24T04:40:34.920Z,15.83
2019-02-24T04:43:04.503Z,16.17
2019-02-24T04:45:34.125Z,16.60
2019-02-24T04:48:03.964Z,16.40
2019-02-24T04:50:33.805Z,15.63
2019-02-24T04:53:03.530Z,17.73
2019-02-24T04:55:33.362Z,17.03
2019-02-24T04:58:02.955Z,17.00
2019-02-24T05:00:32.590Z,17.30
2019-02-24T05:03:02.214Z,16.73
2019-02-24T05:05:31.797Z,17.27
2019-02-24T05:08:01.593Z,16.33
2019-02-24T05:10:31.485Z,16.90
2019-02-24T05:13:01.084Z,16.87
2019-02-24T05:15:30.847Z,16.83
2019-02-24T05:18:00.558Z,17.13
2019-02-24T05:20:30.225Z,17.10
2019-02-24T05:22:59.907Z,17.47
2019-02-24T05:25:29.554Z,16.90
2019-02-24T05:27:59.341Z,17.30
2019-02-24T05:30:29.075Z,16.83
2019-02-24T05:32:58.771Z,16.43
2019-02-24T05:35:28.326Z,15.80
2019-02-24T05:37:57.859Z,15.37
2019-02-24T05:40:27.344Z,14.77
2019-02-24T05:42:57.159Z,15.67
2019-02-24T05:45:26.725Z,16.70
2019-02-24T05:47:56.366Z,16.47
2019-02-24T05:50:25.988Z,15.87
2019-02-24T05:52:55.485Z,17.07
2019-02-24T05:55:25.198Z,16.70
2019-02-24T05:57:54.879Z,16.17
2019-02-24T06:00:24.494Z,16.73
2019-02-24T06:02:54.157Z,15.80
2019-02-24T06:05:23.669Z,16.10
2019-02-24T06:07:53.314Z,15.90
2019-02-24T06:10:22.908Z,16.00
2019-02-24T06:12:52.661Z,15.47
2019-02-24T06:15:22.218Z,15.47
2019-02-24T06:17:51.748Z,14.90
2019-02-24T06:20:21.304Z,16.30
2019-02-24T06:22:50.970Z,16.23
2019-02-24T06:25:21.067Z,16.43
2019-02-24T06:27:50.719Z,15.90
2019-02-24T06:30:20.339Z,16.43
2019-02-24T06:32:49.966Z,16.83
2019-02-24T06:35:19.568Z,16.20
2019-02-24T06:37:49.197Z,15.20
2019-02-24T06:40:19.063Z,16.73
2019-02-24T06:42:48.664Z,15.77
2019-02-24T06:45:18.411Z,16.60
2019-02-24T06:47:48.062Z,17.13
2019-02-24T06:50:17.848Z,17.77
2019-02-24T06:52:47.459Z,16.90
2019-02-24T06:55:17.254Z,16.50
2019-02-24T06:57:46.904Z,16.60
2019-02-24T07:00:16.934Z,16.83
2019-02-24T07:02:46.474Z,16.63
2019-02-24T07:05:16.231Z,16.20
2019-02-24T07:07:45.899Z,16.03
2019-02-24T07:10:15.949Z,17.23
2019-02-24T07:12:45.660Z,16.90
2019-02-24T07:15:15.420Z,16.13
2019-02-24T07:17:45.082Z,16.53
2019-02-24T07:20:15.677Z,17.03
2019-02-24T07:22:45.527Z,15.80
2019-02-24T07:25:16.430Z,15.77
2019-02-24T07:27:46.024Z,16.90
2019-02-24T07:30:23.141Z,16.30
2019-02-24T07:32:47.442Z,16.70
2019-02-24T07:35:17.134Z,17.50
2019-02-24T07:37:46.748Z,16.63
2019-02-24T07:40:16.640Z,16.60
2019-02-24T07:42:46.318Z,16.57
2019-02-24T07:45:15.853Z,16.70
2019-02-24T07:47:45.789Z,16.77
2019-02-24T07:50:15.400Z,16.93
2019-02-24T07:52:45.283Z,16.30
2019-02-24T07:55:14.776Z,17.00
2019-02-24T07:57:44.818Z,16.30
2019-02-24T08:00:14.526Z,17.20
2019-02-24T08:02:44.265Z,17.07
2019-02-24T08:05:14.039Z,17.17
2019-02-24T08:07:43.738Z,16.13
2019-02-24T08:10:13.488Z,16.17
2019-02-24T08:12:43.044Z,17.40
2019-02-24T08:15:12.846Z,16.43
2019-02-24T08:17:42.442Z,17.50
2019-02-24T08:20:12.143Z,17.20
2019-02-24T08:22:41.832Z,16.80
2019-02-24T08:25:11.658Z,16.27
2019-02-24T08:27:41.322Z,17.20
2019-02-24T08:30:13.143Z,16.60
2019-02-24T08:32:42.728Z,17.77
2019-02-24T08:35:12.561Z,16.90
2019-02-24T08:37:42.227Z,16.93
2019-02-24T08:40:11.957Z,17.10
2019-02-24T08:42:41.580Z,17.47
2019-02-24T08:45:11.596Z,16.80
2019-02-24T08:47:41.172Z,16.70
2019-02-24T08:50:11.983Z,16.60
2019-02-24T08:52:41.955Z,16.70
2019-02-24T08:55:11.681Z,17.40
2019-02-24T08:57:41.330Z,16.27
2019-02-24T09:00:14.995Z,17.10
2019-02-24T09:02:44.736Z,16.20
2019-02-24T09:05:14.342Z,15.80
2019-02-24T09:07:43.887Z,16.23
2019-02-24T09:10:13.678Z,15.93
2019-02-24T09:12:43.763Z,16.23
2019-02-24T09:15:14.989Z,15.70
2019-02-24T09:17:44.788Z,15.60
2019-02-24T09:20:15.399Z,15.13
2019-02-24T09:22:45.634Z,14.33
2019-02-24T09:25:15.491Z,14.60
2019-02-24T09:27:45.013Z,14.07
2019-02-24T09:30:15.235Z,14.57
2019-02-24T09:32:45.032Z,14.97
2019-02-24T09:35:14.720Z,14.43
2019-02-24T09:38:03.667Z,14.33
2019-02-24T09:40:33.668Z,15.30
2019-02-24T09:43:03.312Z,14.73
2019-02-24T09:45:32.974Z,15.07
2019-02-24T09:48:02.941Z,14.30
2019-02-24T09:50:32.400Z,14.73
2019-02-24T09:53:02.345Z,14.63
2019-02-24T09:55:31.920Z,14.07
2019-02-24T09:58:01.631Z,14.50
2019-02-24T10:00:31.329Z,14.20
2019-02-24T10:03:00.995Z,15.17
2019-02-24T10:05:31.192Z,14.57
2019-02-24T10:08:00.892Z,14.47
2019-02-24T10:10:30.623Z,15.27
2019-02-24T10:13:00.354Z,15.60
2019-02-24T10:15:30.355Z,15.27
2019-02-24T10:17:59.988Z,16.07
2019-02-24T10:20:30.001Z,15.43
2019-02-24T10:22:59.720Z,14.00
2019-02-24T10:25:29.528Z,14.00
2019-02-24T10:27:59.296Z,13.87
2019-02-24T10:30:29.392Z,13.80
2019-02-24T10:32:59.201Z,14.17
2019-02-24T10:35:29.503Z,13.97
2019-02-24T10:37:59.537Z,14.13
2019-02-24T10:40:29.291Z,13.10
2019-02-24T10:42:59.367Z,12.47
2019-02-24T10:45:30.753Z,12.40
2019-02-24T10:48:00.790Z,11.90
2019-02-24T10:50:31.684Z,12.50
2019-02-24T10:53:01.512Z,11.90
2019-02-24T10:55:31.605Z,12.67
2019-02-24T10:58:01.650Z,12.60
2019-02-24T11:00:31.960Z,12.73
2019-02-24T11:03:01.812Z,11.23
2019-02-24T11:05:31.705Z,11.67
2019-02-24T11:08:01.705Z,11.43
2019-02-24T11:10:31.498Z,11.43
2019-02-24T11:13:01.125Z,10.77
2019-02-24T11:15:32.964Z,11.37
2019-02-24T11:18:02.970Z,10.60
2019-02-24T11:20:32.836Z,10.50
2019-02-24T11:23:02.866Z,9.83
2019-02-24T11:25:32.668Z,11.03
2019-02-24T11:28:02.891Z,10.50
2019-02-24T11:30:32.711Z,9.40
2019-02-24T11:33:02.652Z,10.07
2019-02-24T11:35:32.997Z,9.37
2019-02-24T11:38:02.908Z,9.27
2019-02-24T11:40:32.900Z,9.13
2019-02-24T11:43:02.731Z,9.00
2019-02-24T11:45:32.678Z,9.33
2019-02-24T11:48:02.451Z,8.93
2019-02-24T11:50:32.085Z,8.50
2019-02-24T11:53:01.939Z,9.10
2019-02-24T11:55:31.736Z,9.67
2019-02-24T11:58:01.461Z,9.20
2019-02-24T12:00:31.080Z,9.80
2019-02-24T12:03:00.921Z,9.10
2019-02-24T12:05:30.613Z,9.23
2019-02-24T12:08:00.271Z,9.57
2019-02-24T12:10:29.850Z,10.40
2019-02-24T12:12:59.605Z,10.30
2019-02-24T12:15:29.288Z,9.80
2019-02-24T12:17:59.040Z,9.53
2019-02-24T12:20:28.622Z,10.23
2019-02-24T12:22:58.540Z,10.13
2019-02-24T12:25:28.131Z,10.20
2019-02-24T12:27:57.796Z,9.97
2019-02-24T12:30:27.530Z,10.00
2019-02-24T12:32:57.497Z,9.87
2019-02-24T12:35:27.131Z,10.33
2019-02-24T12:37:56.888Z,10.23
2019-02-24T12:40:26.518Z,9.70
2019-02-24T12:42:56.098Z,10.43
2019-02-24T12:45:25.732Z,9.10
2019-02-24T12:47:55.497Z,10.63
2019-02-24T12:50:25.151Z,9.07
2019-02-24T12:52:54.831Z,10.63
2019-02-24T12:55:24.512Z,10.40
2019-02-24T12:57:54.073Z,9.37
2019-02-24T13:00:26.432Z,10.03
2019-02-24T13:02:56.156Z,9.60
2019-02-24T13:05:25.907Z,9.30
2019-02-24T13:07:55.487Z,9.77
2019-02-24T13:10:25.263Z,8.60
2019-02-24T13:12:54.904Z,8.77
2019-02-24T13:15:24.504Z,8.77
2019-02-24T13:17:54.424Z,8.23
2019-02-24T13:20:24.125Z,7.73
2019-02-24T13:22:53.793Z,8.07
2019-02-24T13:25:23.833Z,8.40
2019-02-24T13:27:53.785Z,8.37
2019-02-24T13:30:23.511Z,8.30
2019-02-24T13:32:53.316Z,7.63
2019-02-24T13:35:22.865Z,8.10
2019-02-24T13:37:52.611Z,8.10
2019-02-24T13:40:22.222Z,8.37
2019-02-24T13:42:52.034Z,8.33
2019-02-24T13:45:23.138Z,9.13
2019-02-24T13:47:52.838Z,8.70
2019-02-24T13:50:22.499Z,9.40
2019-02-24T13:52:52.057Z,8.67
2019-02-24T13:55:21.783Z,8.67
2019-02-24T13:57:51.540Z,9.20
2019-02-24T14:00:22.355Z,8.70
2019-02-24T14:02:52.105Z,8.50
2019-02-24T14:05:22.218Z,7.70
2019-02-24T14:07:52.020Z,8.17
2019-02-24T14:10:21.626Z,8.40
2019-02-24T14:12:51.448Z,8.00
2019-02-24T14:15:21.162Z,7.93
2019-02-24T14:17:50.904Z,8.53
2019-02-24T14:20:21.003Z,7.23
2019-02-24T14:22:50.701Z,7.40
2019-02-24T14:25:20.456Z,8.00
2019-02-24T14:27:50.139Z,7.20
2019-02-24T14:30:20.354Z,7.63
2019-02-24T14:32:50.608Z,7.67
2019-02-24T14:35:27.539Z,7.60
2019-02-24T14:37:57.334Z,7.60
2019-02-24T14:40:26.964Z,7.67
2019-02-24T14:42:56.721Z,7.53
2019-02-24T14:45:26.447Z,7.43
2019-02-24T14:47:56.235Z,8.17
2019-02-24T14:50:25.753Z,7.87
2019-02-24T14:52:55.544Z,8.10
2019-02-24T14:55:25.347Z,7.80
2019-02-24T14:57:55.143Z,7.97
2019-02-24T15:00:25.260Z,7.73
2019-02-24T15:02:54.890Z,7.90
2019-02-24T15:05:24.550Z,8.43
2019-02-24T15:07:54.380Z,8.57
2019-02-24T15:10:26.274Z,8.77
2019-02-24T15:12:56.080Z,7.87
2019-02-24T15:15:33.523Z,7.83
2019-02-24T15:18:03.369Z,7.77
2019-02-24T15:20:33.075Z,8.00
2019-02-24T15:23:02.591Z,7.90
2019-02-24T15:25:32.365Z,7.80
2019-02-24T15:28:02.391Z,7.73
2019-02-24T15:30:34.640Z,7.77
2019-02-24T15:33:04.497Z,7.20
2019-02-24T15:35:34.206Z,7.77
2019-02-24T15:38:03.909Z,7.47
2019-02-24T15:40:33.694Z,7.03
2019-02-24T15:43:03.440Z,6.97
2019-02-24T15:45:33.266Z,7.40
2019-02-24T15:48:03.857Z,6.93
2019-02-24T15:50:33.519Z,7.30
2019-02-24T15:53:05.130Z,6.83
2019-02-24T15:55:34.899Z,6.83
2019-02-24T15:58:04.830Z,6.90
2019-02-24T16:00:34.855Z,6.77
2019-02-24T16:03:04.519Z,6.37
2019-02-24T16:05:34.182Z,6.23
2019-02-24T16:08:03.789Z,6.23
2019-02-24T16:10:33.369Z,6.70
2019-02-24T16:13:03.142Z,6.73
2019-02-24T16:15:33.085Z,7.40
2019-02-24T16:18:02.747Z,6.83
2019-02-24T16:20:35.735Z,6.77
2019-02-24T16:23:06.457Z,6.50
2019-02-24T16:25:36.744Z,7.07
2019-02-24T16:28:06.451Z,6.87
2019-02-24T16:30:36.205Z,7.57
2019-02-24T16:33:10.619Z,7.20
2019-02-24T16:35:37.599Z,7.23
2019-02-24T16:38:07.309Z,7.50
2019-02-24T16:40:36.948Z,7.73
2019-02-24T16:43:06.733Z,7.77
2019-02-24T16:45:36.784Z,7.30
2019-02-24T16:48:06.575Z,8.87
2019-02-24T16:50:36.195Z,10.50
2019-02-24T16:53:05.947Z,10.50
2019-02-24T16:55:35.511Z,10.03
2019-02-24T16:58:05.518Z,10.47
2019-02-24T17:00:35.174Z,9.97
2019-02-24T17:03:04.809Z,10.20
2019-02-24T17:05:34.609Z,9.43
2019-02-24T17:08:04.651Z,8.40
2019-02-24T17:10:34.606Z,8.93
2019-02-24T17:13:04.648Z,9.67
2019-02-24T17:15:34.365Z,9.80
2019-02-24T17:18:04.100Z,9.67
2019-02-24T17:20:33.812Z,29.67
2019-02-24T17:23:04.018Z,15.83
2019-02-24T17:25:34.074Z,15.30
2019-02-24T17:28:03.890Z,10.20
2019-02-24T17:30:33.539Z,10.27
2019-02-24T17:33:03.534Z,9.63
2019-02-24T17:35:33.153Z,9.60
2019-02-24T17:38:03.013Z,9.23
2019-02-24T17:40:32.937Z,9.10
2019-02-24T17:43:04.514Z,8.67
2019-02-24T17:45:34.263Z,9.37
2019-02-24T17:48:04.786Z,9.03
2019-02-24T17:50:34.636Z,9.83
2019-02-24T17:53:04.659Z,8.60
2019-02-24T17:55:34.468Z,9.37
2019-02-24T17:58:05.166Z,10.00
2019-02-24T18:00:36.514Z,10.57
2019-02-24T18:03:06.252Z,10.67
2019-02-24T18:05:36.071Z,11.13
2019-02-24T18:08:06.031Z,10.90
2019-02-24T18:10:35.737Z,10.60
2019-02-24T18:13:05.530Z,10.77
2019-02-24T18:15:35.363Z,10.57
2019-02-24T18:18:05.170Z,11.23
2019-02-24T18:20:34.994Z,10.57
2019-02-24T18:23:04.692Z,9.90
2019-02-24T18:25:34.395Z,9.53
2019-02-24T18:28:04.147Z,9.17
2019-02-24T18:30:34.334Z,9.40
2019-02-24T18:33:04.145Z,9.20
2019-02-24T18:35:34.109Z,14.50
2019-02-24T18:38:03.905Z,11.50
2019-02-24T18:40:33.818Z,9.30
2019-02-24T18:43:03.552Z,11.70
2019-02-24T18:45:33.342Z,11.40
2019-02-24T18:48:03.303Z,10.20
2019-02-24T18:50:32.937Z,10.00
2019-02-24T18:53:02.864Z,11.50
2019-02-24T18:55:32.494Z,10.97
2019-02-24T18:58:02.537Z,11.50
2019-02-24T19:00:32.708Z,11.80
2019-02-24T19:03:02.549Z,10.63
2019-02-24T19:05:32.104Z,10.47
2019-02-24T19:08:02.128Z,10.03
2019-02-24T19:10:31.863Z,11.03
2019-02-24T19:13:01.626Z,10.43
2019-02-24T19:15:31.259Z,11.67
2019-02-24T19:18:01.141Z,11.20
2019-02-24T19:20:31.041Z,11.60
2019-02-24T19:23:00.779Z,11.47
2019-02-24T19:25:30.809Z,13.00
2019-02-24T19:28:00.488Z,13.13
2019-02-24T19:30:30.237Z,13.40
2019-02-24T19:33:00.022Z,13.47
2019-02-24T19:35:31.629Z,14.87
2019-02-24T19:38:01.772Z,12.87
2019-02-24T19:40:31.595Z,13.00
2019-02-24T19:43:01.386Z,11.73
2019-02-24T19:45:31.256Z,11.93
2019-02-24T19:48:00.872Z,12.17
2019-02-24T19:50:30.622Z,11.87
2019-02-24T19:53:03.507Z,11.53
2019-02-24T19:55:33.253Z,12.43
2019-02-24T19:58:03.003Z,11.80
2019-02-24T20:00:33.165Z,12.67
2019-02-24T20:03:02.693Z,12.43
2019-02-24T20:05:32.699Z,11.90
2019-02-24T20:08:02.290Z,12.60
2019-02-24T20:10:32.223Z,12.13
2019-02-24T20:13:02.253Z,11.80
2019-02-24T20:15:31.933Z,12.10
2019-02-24T20:18:01.640Z,37.13
2019-02-24T20:20:31.371Z,19.77
2019-02-24T20:23:01.272Z,12.87
2019-02-24T20:25:31.485Z,14.77
2019-02-24T20:28:01.359Z,13.80
2019-02-24T20:30:34.386Z,12.80
2019-02-24T20:33:04.241Z,12.93
2019-02-24T20:35:34.304Z,13.80
2019-02-24T20:38:04.109Z,13.83
2019-02-24T20:40:33.879Z,14.33
2019-02-24T20:43:05.557Z,13.97
2019-02-24T20:45:35.271Z,13.60
2019-02-24T20:48:05.990Z,15.30
2019-02-24T20:50:36.452Z,14.67
2019-02-24T20:53:06.371Z,13.77
2019-02-24T20:55:36.033Z,13.47
2019-02-24T20:58:06.052Z,13.90
2019-02-24T21:00:43.990Z,14.20
2019-02-24T21:03:13.969Z,14.30
2019-02-24T21:05:45.433Z,14.90
2019-02-24T21:08:15.870Z,15.63
2019-02-24T21:10:45.598Z,15.20
2019-02-24T21:13:16.859Z,15.53
2019-02-24T21:15:46.805Z,14.10
2019-02-24T21:18:16.740Z,13.83
2019-02-24T21:20:46.358Z,14.33
2019-02-24T21:23:16.140Z,18.13
2019-02-24T21:25:45.945Z,17.07
2019-02-24T21:28:16.065Z,14.70
2019-02-24T21:30:46.177Z,13.27
2019-02-24T21:33:15.984Z,12.60
2019-02-24T21:35:46.602Z,11.90
2019-02-24T21:38:16.805Z,12.00
2019-02-24T21:40:46.544Z,13.00
2019-02-24T21:43:16.367Z,12.30
2019-02-24T21:45:46.075Z,12.27
2019-02-24T21:48:15.920Z,12.23
2019-02-24T21:50:45.683Z,12.47
2019-02-24T21:53:15.315Z,13.53
2019-02-24T21:55:45.100Z,14.20
2019-02-24T21:58:14.895Z,12.97
2019-02-24T22:00:44.947Z,12.80
2019-02-24T22:03:14.514Z,12.70
2019-02-24T22:05:44.373Z,13.10
2019-02-24T22:08:14.191Z,12.83
2019-02-24T22:10:43.995Z,13.67
2019-02-24T22:13:13.666Z,13.60
2019-02-24T22:15:43.415Z,12.83
2019-02-24T22:18:13.081Z,13.10
2019-02-24T22:20:42.710Z,13.73
2019-02-24T22:23:12.397Z,14.47
2019-02-24T22:25:42.071Z,13.90
2019-02-24T22:28:11.805Z,13.17
2019-02-24T22:30:41.416Z,13.30
2019-02-24T22:33:11.296Z,14.60
2019-02-24T22:35:41.094Z,14.00
2019-02-24T22:38:11.015Z,14.97
2019-02-24T22:40:41.029Z,14.40
2019-02-24T22:43:10.753Z,13.73
2019-02-24T22:45:40.649Z,15.30
2019-02-24T22:48:10.407Z,16.57
2019-02-24T22:50:40.027Z,17.93
2019-02-24T22:53:09.827Z,17.30
2019-02-24T22:55:39.461Z,18.03
2019-02-24T22:58:09.354Z,17.20
2019-02-24T23:00:51.984Z,17.30
2019-02-24T23:03:24.223Z,18.00
2019-02-24T23:05:53.868Z,17.03
2019-02-24T23:08:24.411Z,18.63
2019-02-24T23:10:54.099Z,18.47
2019-02-24T23:13:23.801Z,18.60
2019-02-24T23:15:53.466Z,17.60
2019-02-24T23:18:23.095Z,17.53
2019-02-24T23:20:52.715Z,16.80
2019-02-24T23:23:22.461Z,15.43
2019-02-24T23:25:52.413Z,15.30
2019-02-24T23:28:22.442Z,16.73
2019-02-24T23:30:52.169Z,15.37
2019-02-24T23:33:21.818Z,16.17
2019-02-24T23:35:51.480Z,15.97
2019-02-24T23:38:21.270Z,15.50
2019-02-24T23:40:50.928Z,14.87
2019-02-24T23:43:20.661Z,14.47
2019-02-24T23:45:50.318Z,14.50
2019-02-24T23:48:20.039Z,14.70
2019-02-24T23:50:49.723Z,14.40
2019-02-24T23:53:19.509Z,14.60
2019-02-24T23:55:49.174Z,13.90
2019-02-24T23:58:18.919Z,14.57
